createdAt,value
2017-08-01T00:00:36.629Z,24.6
2017-08-01T00:01:49.000Z,24.52
2017-08-01T00:03:00.566Z,24.55
2017-08-01T00:04:10.802Z,24.57
2017-08-01T00:05:19.878Z,24.53
2017-08-01T00:06:28.943Z,24.58
2017-08-01T00:07:37.900Z,24.58
2017-08-01T00:08:46.871Z,24.53
2017-08-01T00:09:55.871Z,24.55
2017-08-01T00:11:04.844Z,24.58
2017-08-01T00:12:13.802Z,24.61
2017-08-01T00:13:22.833Z,24.62
2017-08-01T00:14:32.211Z,24.6
2017-08-01T00:15:41.213Z,24.6
2017-08-01T00:16:50.215Z,24.57
2017-08-01T00:17:59.368Z,24.55
2017-08-01T00:19:08.490Z,24.61
2017-08-01T00:20:17.655Z,24.57
2017-08-01T00:21:26.747Z,24.62
2017-08-01T00:22:35.752Z,24.53
2017-08-01T00:23:44.752Z,24.6
2017-08-01T00:24:54.165Z,24.49
2017-08-01T00:26:03.134Z,24.53
2017-08-01T00:27:12.241Z,24.49
2017-08-01T00:28:21.205Z,24.57
2017-08-01T00:29:30.168Z,24.5
2017-08-01T00:30:39.466Z,24.5
2017-08-01T00:31:48.562Z,24.58
2017-08-01T00:32:57.588Z,24.49
2017-08-01T00:34:06.772Z,24.5
2017-08-01T00:35:15.740Z,24.5
2017-08-01T00:36:24.933Z,24.5
2017-08-01T00:37:34.217Z,24.37
2017-08-01T00:38:43.618Z,24.37
2017-08-01T00:39:52.640Z,24.39
2017-08-01T00:41:01.734Z,24.4
2017-08-01T00:42:10.688Z,24.4
2017-08-01T00:43:19.792Z,24.42
2017-08-01T00:44:28.984Z,24.49
2017-08-01T00:45:38.115Z,24.43
2017-08-01T00:46:47.403Z,24.46
2017-08-01T00:47:56.418Z,24.42
2017-08-01T00:49:05.843Z,24.45
2017-08-01T00:50:15.065Z,24.42
2017-08-01T00:51:24.101Z,24.43
2017-08-01T00:52:33.157Z,24.35
2017-08-01T00:53:42.274Z,24.37
2017-08-01T00:54:51.293Z,24.37
2017-08-01T00:56:00.349Z,24.43
2017-08-01T00:57:09.447Z,24.37
2017-08-01T00:58:18.975Z,24.42
2017-08-01T00:59:27.972Z,24.4
2017-08-01T01:00:37.040Z,24.35
2017-08-01T01:01:45.998Z,24.42
2017-08-01T01:02:54.957Z,24.37
2017-08-01T01:04:03.922Z,24.42
2017-08-01T01:05:12.908Z,24.39
2017-08-01T01:06:21.872Z,24.37
2017-08-01T01:07:30.830Z,24.39
2017-08-01T01:08:39.781Z,24.42
2017-08-01T01:09:48.741Z,24.35
2017-08-01T01:10:57.698Z,24.4
2017-08-01T01:12:06.657Z,24.39
2017-08-01T01:13:15.621Z,24.42
2017-08-01T01:14:24.589Z,24.43
2017-08-01T01:15:33.546Z,24.42
2017-08-01T01:16:42.509Z,24.3
2017-08-01T01:17:51.477Z,24.39
2017-08-01T01:19:00.441Z,24.35
2017-08-01T01:20:09.401Z,24.37
2017-08-01T01:21:18.364Z,24.43
2017-08-01T01:22:27.327Z,24.34
2017-08-01T01:23:36.291Z,24.31
2017-08-01T01:24:45.253Z,24.27
2017-08-01T01:25:54.205Z,24.28
2017-08-01T01:27:03.158Z,24.34
2017-08-01T01:28:12.121Z,24.31
2017-08-01T01:29:21.402Z,24.28
2017-08-01T01:30:30.363Z,24.28
2017-08-01T01:31:39.328Z,24.27
2017-08-01T01:32:48.299Z,24.3
2017-08-01T01:33:57.259Z,24.28
2017-08-01T01:35:06.231Z,24.34
2017-08-01T01:36:15.520Z,24.24
2017-08-01T01:37:24.474Z,24.27
2017-08-01T01:38:33.428Z,24.31
2017-08-01T01:39:42.387Z,24.27
2017-08-01T01:40:51.349Z,24.3
2017-08-01T01:42:00.306Z,24.4
2017-08-01T01:43:09.263Z,24.31
2017-08-01T01:44:18.229Z,24.32
2017-08-01T01:45:27.187Z,24.27
2017-08-01T01:46:36.149Z,24.3
2017-08-01T01:47:45.110Z,24.25
2017-08-01T01:48:54.070Z,24.24
2017-08-01T01:50:03.352Z,24.32
2017-08-01T01:51:12.316Z,24.24
2017-08-01T01:52:21.282Z,24.25
2017-08-01T01:53:30.250Z,24.27
2017-08-01T01:54:39.209Z,24.22
2017-08-01T01:55:48.169Z,24.18
2017-08-01T01:56:57.133Z,24.12
2017-08-01T01:58:06.429Z,24.16
2017-08-01T01:59:15.403Z,24.2
2017-08-01T02:00:24.777Z,24.2
2017-08-01T02:01:33.819Z,24.21
2017-08-01T02:02:42.784Z,24.2
2017-08-01T02:03:51.736Z,24.2
2017-08-01T02:05:00.694Z,24.12
2017-08-01T02:06:09.661Z,24.15
2017-08-01T02:07:18.622Z,24.08
2017-08-01T02:08:27.586Z,24.12
2017-08-01T02:09:36.861Z,24.08
2017-08-01T02:10:45.818Z,24.12
2017-08-01T02:11:55.094Z,24.09
2017-08-01T02:13:04.385Z,24.09
2017-08-01T02:14:13.660Z,24.08
2017-08-01T02:15:22.612Z,24.1
2017-08-01T02:16:31.900Z,24.12
2017-08-01T02:17:40.874Z,24.08
2017-08-01T02:18:50.162Z,24.13
2017-08-01T02:19:59.120Z,24.09
2017-08-01T02:21:08.409Z,24.09
2017-08-01T02:22:17.370Z,24.08
2017-08-01T02:23:26.334Z,24.08
2017-08-01T02:24:35.292Z,24.09
2017-08-01T02:25:44.248Z,24.09
2017-08-01T02:26:53.207Z,23.98
2017-08-01T02:28:02.170Z,24.09
2017-08-01T02:29:11.136Z,24.1
2017-08-01T02:30:20.419Z,24.09
2017-08-01T02:31:29.390Z,24.05
2017-08-01T02:32:38.351Z,24.12
2017-08-01T02:33:47.314Z,24.1
2017-08-01T02:34:56.275Z,24.12
2017-08-01T02:36:05.342Z,24.06
2017-08-01T02:37:14.308Z,24.02
2017-08-01T02:38:23.273Z,24.1
2017-08-01T02:39:32.231Z,24.08
2017-08-01T02:40:41.194Z,24.12
2017-08-01T02:41:50.153Z,24.1
2017-08-01T02:42:59.123Z,24.09
2017-08-01T02:44:08.078Z,24.13
2017-08-01T02:45:17.029Z,24.1
2017-08-01T02:46:26.006Z,24.15
2017-08-01T02:47:34.963Z,24.1
2017-08-01T02:48:43.928Z,24.06
2017-08-01T02:49:52.896Z,24.18
2017-08-01T02:51:01.861Z,24.1
2017-08-01T02:52:10.828Z,24.13
2017-08-01T02:53:19.787Z,24.1
2017-08-01T02:54:28.744Z,24.09
2017-08-01T02:55:37.712Z,24.12
2017-08-01T02:56:46.668Z,24.06
2017-08-01T02:57:55.627Z,24.09
2017-08-01T02:59:04.593Z,24.02
2017-08-01T03:00:13.555Z,23.97
2017-08-01T03:01:22.517Z,23.91
2017-08-01T03:02:31.820Z,23.84
2017-08-01T03:03:40.789Z,23.85
2017-08-01T03:04:49.741Z,23.76
2017-08-01T03:05:58.702Z,23.69
2017-08-01T03:07:07.681Z,23.66
2017-08-01T03:08:16.644Z,23.58
2017-08-01T03:09:25.600Z,23.6
2017-08-01T03:10:34.562Z,23.54
2017-08-01T03:11:43.519Z,23.46
2017-08-01T03:12:52.485Z,23.42
2017-08-01T03:14:01.445Z,23.43
2017-08-01T03:15:10.403Z,23.5
2017-08-01T03:16:19.381Z,23.43
2017-08-01T03:17:28.656Z,23.35
2017-08-01T03:18:37.613Z,23.33
2017-08-01T03:19:46.571Z,23.35
2017-08-01T03:20:55.541Z,23.23
2017-08-01T03:22:04.800Z,23.33
2017-08-01T03:23:13.756Z,23.28
2017-08-01T03:24:22.721Z,23.17
2017-08-01T03:25:31.683Z,23.09
2017-08-01T03:26:40.643Z,23.07
2017-08-01T03:27:49.611Z,23.01
2017-08-01T03:28:58.570Z,22.88
2017-08-01T03:30:07.859Z,22.88
2017-08-01T03:31:16.834Z,22.79
2017-08-01T03:32:26.126Z,22.79
2017-08-01T03:33:35.089Z,22.8
2017-08-01T03:34:44.052Z,22.67
2017-08-01T03:35:53.013Z,22.72
2017-08-01T03:37:01.977Z,22.75
2017-08-01T03:38:10.954Z,22.76
2017-08-01T03:39:19.950Z,22.65
2017-08-01T03:40:28.916Z,22.7
2017-08-01T03:41:37.875Z,22.65
2017-08-01T03:42:46.838Z,22.64
2017-08-01T03:43:55.820Z,22.68
2017-08-01T03:45:04.791Z,22.62
2017-08-01T03:46:13.757Z,22.58
2017-08-01T03:47:22.716Z,22.55
2017-08-01T03:48:31.670Z,22.55
2017-08-01T03:49:40.635Z,22.51
2017-08-01T03:50:49.595Z,22.52
2017-08-01T03:51:58.875Z,22.51
2017-08-01T03:53:07.860Z,22.51
2017-08-01T03:54:16.822Z,22.47
2017-08-01T03:55:25.782Z,22.55
2017-08-01T03:56:34.754Z,22.54
2017-08-01T03:57:43.720Z,22.47
2017-08-01T03:58:52.692Z,22.51
2017-08-01T04:00:01.646Z,22.47
2017-08-01T04:01:10.617Z,22.45
2017-08-01T04:02:19.585Z,22.47
2017-08-01T04:03:28.543Z,22.45
2017-08-01T04:04:37.505Z,22.45
2017-08-01T04:05:46.465Z,22.4
2017-08-01T04:06:55.427Z,22.49
2017-08-01T04:08:04.391Z,22.52
2017-08-01T04:09:13.358Z,22.45
2017-08-01T04:10:22.322Z,22.51
2017-08-01T04:11:31.291Z,22.43
2017-08-01T04:12:40.247Z,22.47
2017-08-01T04:13:49.208Z,22.42
2017-08-01T04:14:58.168Z,22.55
2017-08-01T04:16:07.160Z,22.47
2017-08-01T04:17:16.123Z,22.46
2017-08-01T04:18:25.080Z,22.47
2017-08-01T04:19:34.038Z,22.46
2017-08-01T04:20:43.325Z,22.46
2017-08-01T04:21:52.286Z,22.49
2017-08-01T04:23:01.245Z,22.45
2017-08-01T04:24:10.205Z,22.47
2017-08-01T04:25:19.155Z,22.43
2017-08-01T04:26:28.110Z,22.51
2017-08-01T04:27:37.081Z,22.46
2017-08-01T04:28:46.049Z,22.46
2017-08-01T04:29:55.019Z,22.51
2017-08-01T04:31:04.310Z,22.46
2017-08-01T04:32:13.267Z,22.36
2017-08-01T04:33:22.243Z,22.36
2017-08-01T04:34:31.215Z,22.31
2017-08-01T04:35:40.177Z,22.39
2017-08-01T04:36:49.187Z,22.42
2017-08-01T04:37:58.142Z,22.39
2017-08-01T04:39:07.102Z,22.4
2017-08-01T04:40:16.065Z,22.35
2017-08-01T04:41:25.017Z,22.24
2017-08-01T04:42:34.316Z,22.25
2017-08-01T04:43:43.278Z,22.12
2017-08-01T04:44:52.232Z,21.99
2017-08-01T04:46:01.206Z,21.99
2017-08-01T04:47:10.161Z,22
2017-08-01T04:48:19.117Z,22
2017-08-01T04:49:28.064Z,21.99
2017-08-01T04:50:37.013Z,21.84
2017-08-01T04:51:45.973Z,21.71
2017-08-01T04:52:54.937Z,21.72
2017-08-01T04:54:03.895Z,21.72
2017-08-01T04:55:12.858Z,21.64
2017-08-01T04:56:21.818Z,21.5
2017-08-01T04:57:30.809Z,21.46
2017-08-01T04:58:39.770Z,21.54
2017-08-01T04:59:48.721Z,21.5
2017-08-01T05:00:57.680Z,21.49
2017-08-01T05:02:06.960Z,21.47
2017-08-01T05:03:15.930Z,21.43
2017-08-01T05:04:24.894Z,21.43
2017-08-01T05:05:33.854Z,21.31
2017-08-01T05:06:42.820Z,21.25
2017-08-01T05:07:51.776Z,21.29
2017-08-01T05:09:00.756Z,21.27
2017-08-01T05:10:09.721Z,21.24
2017-08-01T05:11:18.681Z,21.32
2017-08-01T05:12:27.636Z,21.17
2017-08-01T05:13:36.593Z,21.17
2017-08-01T05:14:45.554Z,21.17
2017-08-01T05:15:54.843Z,21.13
2017-08-01T05:17:03.798Z,21.19
2017-08-01T05:18:13.079Z,21.24
2017-08-01T05:19:22.043Z,21.19
2017-08-01T05:20:31.008Z,21.25
2017-08-01T05:21:39.972Z,21.22
2017-08-01T05:22:48.921Z,21.22
2017-08-01T05:23:57.871Z,21.16
2017-08-01T05:25:06.825Z,21.21
2017-08-01T05:26:15.783Z,21.12
2017-08-01T05:27:24.740Z,21.1
2017-08-01T05:28:33.706Z,21.12
2017-08-01T05:29:42.664Z,21.14
2017-08-01T05:30:51.623Z,21.12
2017-08-01T05:32:00.575Z,21.06
2017-08-01T05:33:09.529Z,21.1
2017-08-01T05:34:18.485Z,21.09
2017-08-01T05:35:27.450Z,20.92
2017-08-01T05:36:36.406Z,21.04
2017-08-01T05:37:45.368Z,20.99
2017-08-01T05:38:54.329Z,20.95
2017-08-01T05:40:03.284Z,20.94
2017-08-01T05:41:12.245Z,20.95
2017-08-01T05:42:21.195Z,20.94
2017-08-01T05:43:30.153Z,20.87
2017-08-01T05:44:39.129Z,20.92
2017-08-01T05:45:48.089Z,20.87
2017-08-01T05:46:57.055Z,20.97
2017-08-01T05:48:06.025Z,21.04
2017-08-01T05:49:14.975Z,20.98
2017-08-01T05:50:23.925Z,20.97
2017-08-01T05:51:32.891Z,20.98
2017-08-01T05:52:41.852Z,21.03
2017-08-01T05:53:50.831Z,20.98
2017-08-01T05:54:59.795Z,21.07
2017-08-01T05:56:08.755Z,21.09
2017-08-01T05:57:17.711Z,21.07
2017-08-01T05:58:26.665Z,21.01
2017-08-01T05:59:35.952Z,21.03
2017-08-01T06:00:44.905Z,20.97
2017-08-01T06:01:53.873Z,21.01
2017-08-01T06:03:02.835Z,20.87
2017-08-01T06:04:11.792Z,20.92
2017-08-01T06:05:20.746Z,20.88
2017-08-01T06:06:29.709Z,20.94
2017-08-01T06:07:38.685Z,20.89
2017-08-01T06:08:47.953Z,20.89
2017-08-01T06:09:56.906Z,20.87
2017-08-01T06:11:05.862Z,20.76
2017-08-01T06:12:14.822Z,20.59
2017-08-01T06:13:23.782Z,20.66
2017-08-01T06:14:32.739Z,20.54
2017-08-01T06:15:41.693Z,20.5
2017-08-01T06:16:50.662Z,20.39
2017-08-01T06:17:59.621Z,20.28
2017-08-01T06:19:08.573Z,20.41
2017-08-01T06:20:17.534Z,20.36
2017-08-01T06:21:26.492Z,20.38
2017-08-01T06:22:35.450Z,20.36
2017-08-01T06:23:44.407Z,20.42
2017-08-01T06:24:53.361Z,20.52
2017-08-01T06:26:02.317Z,20.5
2017-08-01T06:27:11.262Z,20.54
2017-08-01T06:28:20.548Z,20.5
2017-08-01T06:29:29.509Z,20.52
2017-08-01T06:30:38.468Z,20.54
2017-08-01T06:31:47.424Z,20.51
2017-08-01T06:32:56.388Z,20.57
2017-08-01T06:34:05.353Z,20.64
2017-08-01T06:35:14.317Z,20.64
2017-08-01T06:36:23.275Z,20.52
2017-08-01T06:37:32.559Z,20.62
2017-08-01T06:38:41.528Z,20.66
2017-08-01T06:39:50.481Z,20.62
2017-08-01T06:40:59.447Z,20.61
2017-08-01T06:42:08.491Z,20.61
2017-08-01T06:43:17.441Z,20.74
2017-08-01T06:44:26.392Z,20.72
2017-08-01T06:45:35.687Z,20.69
2017-08-01T06:46:44.685Z,20.8
2017-08-01T06:47:53.644Z,20.84
2017-08-01T06:49:02.609Z,20.8
2017-08-01T06:50:11.572Z,20.84
2017-08-01T06:51:20.530Z,20.87
2017-08-01T06:52:29.572Z,20.85
2017-08-01T06:53:38.554Z,20.88
2017-08-01T06:54:47.838Z,20.84
2017-08-01T06:55:56.791Z,20.87
2017-08-01T06:57:05.751Z,20.89
2017-08-01T06:58:14.721Z,20.89
2017-08-01T06:59:23.686Z,20.91
2017-08-01T07:00:32.638Z,20.87
2017-08-01T07:01:41.595Z,20.82
2017-08-01T07:02:50.546Z,20.88
2017-08-01T07:03:59.519Z,20.89
2017-08-01T07:05:08.496Z,20.89
2017-08-01T07:06:17.449Z,20.85
2017-08-01T07:07:26.414Z,20.95
2017-08-01T07:08:35.371Z,20.91
2017-08-01T07:09:44.325Z,20.88
2017-08-01T07:10:53.278Z,20.95
2017-08-01T07:12:02.243Z,20.97
2017-08-01T07:13:11.206Z,21.1
2017-08-01T07:14:20.169Z,21.06
2017-08-01T07:15:29.120Z,20.95
2017-08-01T07:16:38.079Z,20.98
2017-08-01T07:17:47.039Z,20.98
2017-08-01T07:18:56.003Z,20.97
2017-08-01T07:20:04.972Z,20.97
2017-08-01T07:21:13.928Z,21.01
2017-08-01T07:22:22.898Z,21.06
2017-08-01T07:23:31.913Z,20.99
2017-08-01T07:24:42.112Z,21.1
2017-08-01T07:25:51.082Z,21.13
2017-08-01T07:27:00.046Z,21.13
2017-08-01T07:28:09.002Z,21.19
2017-08-01T07:29:17.957Z,21.27
2017-08-01T07:30:26.918Z,21.34
2017-08-01T07:31:35.877Z,21.37
2017-08-01T07:32:44.840Z,21.43
2017-08-01T07:33:53.801Z,21.49
2017-08-01T07:35:02.752Z,21.44
2017-08-01T07:36:11.717Z,21.46
2017-08-01T07:37:20.667Z,21.44
2017-08-01T07:38:29.630Z,21.54
2017-08-01T07:39:38.602Z,21.54
2017-08-01T07:40:47.569Z,21.64
2017-08-01T07:41:56.610Z,21.65
2017-08-01T07:43:06.375Z,21.59
2017-08-01T07:44:15.825Z,21.62
2017-08-01T07:45:24.866Z,21.58
2017-08-01T07:46:33.839Z,21.77
2017-08-01T07:47:42.850Z,21.75
2017-08-01T07:48:51.882Z,21.82
2017-08-01T07:50:00.847Z,21.83
2017-08-01T07:51:09.821Z,21.84
2017-08-01T07:52:18.913Z,21.86
2017-08-01T07:53:27.955Z,21.92
2017-08-01T07:54:36.963Z,21.94
2017-08-01T07:55:46.067Z,21.94
2017-08-01T07:56:55.256Z,21.98
2017-08-01T07:58:04.363Z,21.96
2017-08-01T07:59:13.386Z,21.98
2017-08-01T08:00:22.406Z,21.83
2017-08-01T08:01:31.372Z,21.9
2017-08-01T08:02:40.430Z,21.84
2017-08-01T08:03:49.519Z,21.9
2017-08-01T08:04:58.571Z,21.86
2017-08-01T08:06:07.533Z,21.94
2017-08-01T08:07:16.556Z,21.9
2017-08-01T08:08:25.549Z,21.92
2017-08-01T08:09:34.515Z,21.99
2017-08-01T08:10:43.529Z,21.96
2017-08-01T08:11:52.551Z,21.98
2017-08-01T08:13:01.580Z,22.02
2017-08-01T08:14:10.589Z,21.94
2017-08-01T08:15:19.710Z,21.98
2017-08-01T08:16:28.711Z,22.14
2017-08-01T08:17:37.669Z,22.15
2017-08-01T08:18:46.741Z,22.18
2017-08-01T08:19:55.793Z,22.12
2017-08-01T08:21:05.069Z,22.2
2017-08-01T08:22:14.076Z,22.2
2017-08-01T08:23:23.462Z,22.24
2017-08-01T08:24:32.462Z,22.3
2017-08-01T08:25:41.455Z,22.33
2017-08-01T08:26:50.598Z,22.36
2017-08-01T08:27:59.555Z,22.42
2017-08-01T08:29:08.627Z,22.43
2017-08-01T08:30:17.594Z,22.54
2017-08-01T08:31:26.717Z,22.57
2017-08-01T08:32:35.858Z,22.67
2017-08-01T08:33:44.954Z,22.68
2017-08-01T08:34:54.104Z,22.75
2017-08-01T08:36:03.152Z,22.76
2017-08-01T08:37:12.314Z,22.8
2017-08-01T08:38:21.345Z,22.68
2017-08-01T08:39:30.699Z,22.72
2017-08-01T08:40:39.761Z,22.76
2017-08-01T08:41:48.837Z,22.88
2017-08-01T08:42:57.913Z,22.9
2017-08-01T08:44:07.228Z,22.92
2017-08-01T08:45:16.253Z,22.91
2017-08-01T08:46:25.431Z,22.95
2017-08-01T08:47:34.508Z,22.92
2017-08-01T08:48:43.476Z,23.01
2017-08-01T08:49:52.560Z,23.07
2017-08-01T08:51:01.564Z,22.91
2017-08-01T08:52:10.670Z,23.02
2017-08-01T08:53:19.828Z,23.04
2017-08-01T08:54:28.995Z,23.09
2017-08-01T08:55:38.179Z,23.05
2017-08-01T08:56:47.516Z,23.15
2017-08-01T08:57:56.682Z,23.12
2017-08-01T08:59:05.763Z,23.09
2017-08-01T09:00:14.961Z,23.12
2017-08-01T09:01:24.062Z,23.16
2017-08-01T09:02:33.248Z,23.09
2017-08-01T09:03:42.351Z,23.12
2017-08-01T09:04:51.704Z,23.13
2017-08-01T09:06:00.973Z,23.15
2017-08-01T09:07:10.124Z,23.23
2017-08-01T09:08:19.185Z,23.22
2017-08-01T09:09:28.191Z,23.27
2017-08-01T09:10:37.369Z,23.35
2017-08-01T09:11:46.439Z,23.36
2017-08-01T09:12:55.542Z,23.35
2017-08-01T09:14:04.531Z,23.31
2017-08-01T09:15:13.576Z,23.2
2017-08-01T09:16:22.749Z,23.27
2017-08-01T09:17:31.818Z,23.16
2017-08-01T09:18:40.873Z,23.25
2017-08-01T09:19:49.930Z,23.32
2017-08-01T09:20:58.921Z,23.27
2017-08-01T09:22:07.889Z,23.35
2017-08-01T09:23:16.894Z,23.27
2017-08-01T09:24:25.901Z,23.32
2017-08-01T09:25:34.866Z,23.33
2017-08-01T09:26:43.832Z,23.38
2017-08-01T09:27:52.806Z,23.42
2017-08-01T09:29:01.768Z,23.46
2017-08-01T09:30:10.923Z,23.48
2017-08-01T09:31:20.110Z,23.51
2017-08-01T09:32:29.168Z,23.6
2017-08-01T09:33:38.141Z,23.57
2017-08-01T09:34:47.294Z,23.58
2017-08-01T09:35:56.366Z,23.53
2017-08-01T09:37:05.321Z,23.6
2017-08-01T09:38:14.464Z,23.7
2017-08-01T09:39:23.749Z,23.6
2017-08-01T09:40:32.747Z,23.63
2017-08-01T09:41:41.774Z,23.75
2017-08-01T09:42:50.883Z,23.79
2017-08-01T09:43:59.887Z,23.8
2017-08-01T09:45:08.847Z,23.83
2017-08-01T09:46:17.804Z,23.84
2017-08-01T09:47:26.763Z,23.93
2017-08-01T09:48:35.723Z,23.88
2017-08-01T09:49:44.691Z,23.95
2017-08-01T09:50:53.659Z,23.97
2017-08-01T09:52:02.631Z,24.03
2017-08-01T09:53:11.591Z,24.03
2017-08-01T09:54:20.549Z,23.95
2017-08-01T09:55:29.516Z,24.02
2017-08-01T09:56:38.478Z,24.02
2017-08-01T09:57:47.433Z,23.97
2017-08-01T09:58:56.400Z,24.02
2017-08-01T10:00:05.370Z,24.1
2017-08-01T10:01:14.473Z,24.08
2017-08-01T10:02:23.444Z,24.12
2017-08-01T10:03:32.399Z,24.09
2017-08-01T10:04:41.361Z,24.09
2017-08-01T10:05:50.657Z,24.16
2017-08-01T10:06:59.610Z,24.13
2017-08-01T10:08:08.591Z,24.13
2017-08-01T10:09:17.549Z,24.09
2017-08-01T10:10:26.532Z,24.2
2017-08-01T10:11:35.497Z,24.2
2017-08-01T10:12:44.460Z,24.18
2017-08-01T10:13:53.423Z,24.2
2017-08-01T10:15:02.392Z,24.22
2017-08-01T10:16:11.357Z,24.22
2017-08-01T10:17:20.318Z,24.16
2017-08-01T10:18:29.283Z,24.2
2017-08-01T10:19:38.251Z,24.22
2017-08-01T10:20:47.244Z,24.3
2017-08-01T10:21:56.210Z,24.37
2017-08-01T10:23:05.487Z,24.32
2017-08-01T10:24:14.459Z,24.39
2017-08-01T10:25:23.751Z,24.4
2017-08-01T10:26:32.713Z,24.37
2017-08-01T10:27:41.686Z,24.45
2017-08-01T10:28:50.645Z,24.32
2017-08-01T10:29:59.613Z,24.39
2017-08-01T10:31:08.576Z,24.28
2017-08-01T10:32:17.558Z,24.43
2017-08-01T10:33:26.526Z,24.4
2017-08-01T10:34:35.573Z,24.46
2017-08-01T10:35:44.534Z,24.31
2017-08-01T10:36:53.487Z,24.43
2017-08-01T10:38:02.767Z,24.39
2017-08-01T10:39:11.743Z,24.46
2017-08-01T10:40:20.706Z,24.52
2017-08-01T10:41:29.666Z,24.57
2017-08-01T10:42:38.647Z,24.55
2017-08-01T10:43:47.611Z,24.64
2017-08-01T10:44:56.578Z,24.6
2017-08-01T10:46:05.547Z,24.62
2017-08-01T10:47:14.522Z,24.65
2017-08-01T10:48:23.488Z,24.69
2017-08-01T10:49:32.451Z,24.62
2017-08-01T10:50:41.418Z,24.65
2017-08-01T10:51:50.397Z,24.71
2017-08-01T10:52:59.352Z,24.67
2017-08-01T10:54:08.311Z,24.76
2017-08-01T10:55:17.279Z,24.84
2017-08-01T10:56:26.238Z,24.78
2017-08-01T10:57:35.205Z,24.81
2017-08-01T10:58:44.183Z,24.85
2017-08-01T10:59:53.324Z,24.85
2017-08-01T11:01:02.619Z,24.84
2017-08-01T11:02:11.633Z,24.9
2017-08-01T11:03:20.601Z,24.9
2017-08-01T11:04:29.565Z,25
2017-08-01T11:05:38.538Z,25.05
2017-08-01T11:06:47.493Z,24.98
2017-08-01T11:07:56.452Z,24.98
2017-08-01T11:09:05.413Z,25.03
2017-08-01T11:10:14.377Z,24.99
2017-08-01T11:11:23.338Z,25.05
2017-08-01T11:12:32.305Z,24.99
2017-08-01T11:13:41.278Z,25.02
2017-08-01T11:14:50.241Z,25.06
2017-08-01T11:15:59.214Z,25.08
2017-08-01T11:17:08.172Z,25.15
2017-08-01T11:18:17.134Z,25.17
2017-08-01T11:19:26.116Z,25.2
2017-08-01T11:20:35.091Z,25.23
2017-08-01T11:21:44.048Z,25.23
2017-08-01T11:22:53.007Z,25.3
2017-08-01T11:24:01.967Z,25.35
2017-08-01T11:25:11.258Z,25.32
2017-08-01T11:26:20.221Z,25.45
2017-08-01T11:27:29.177Z,25.45
2017-08-01T11:28:38.146Z,25.54
2017-08-01T11:29:47.120Z,25.57
2017-08-01T11:30:56.081Z,25.55
2017-08-01T11:32:05.042Z,25.57
2017-08-01T11:33:14.014Z,25.57
2017-08-01T11:34:23.107Z,25.6
2017-08-01T11:35:32.162Z,25.58
2017-08-01T11:36:41.120Z,25.6
2017-08-01T11:37:50.085Z,25.65
2017-08-01T11:38:59.042Z,25.73
2017-08-01T11:40:08.006Z,25.7
2017-08-01T11:41:17.064Z,25.65
2017-08-01T11:42:26.138Z,25.69
2017-08-01T11:43:35.218Z,25.7
2017-08-01T11:44:44.309Z,25.8
2017-08-01T11:45:53.269Z,25.79
2017-08-01T11:47:02.237Z,25.83
2017-08-01T11:48:11.713Z,25.82
2017-08-01T11:49:20.891Z,25.9
2017-08-01T11:50:29.859Z,25.83
2017-08-01T11:51:41.005Z,25.87
2017-08-01T11:53:02.462Z,25.87
2017-08-01T11:54:26.373Z,25.88
2017-08-01T11:55:44.745Z,25.87
2017-08-01T11:56:55.267Z,25.85
2017-08-01T11:58:04.225Z,25.97
2017-08-01T11:59:13.187Z,25.98
2017-08-01T12:00:22.156Z,26.05
2017-08-01T12:01:31.119Z,26.02
2017-08-01T12:02:40.079Z,26.12
2017-08-01T12:03:49.038Z,26.06
2017-08-01T12:04:58.009Z,26.06
2017-08-01T12:06:06.972Z,26.09
2017-08-01T12:07:15.940Z,26.05
2017-08-01T12:08:24.902Z,25.99
2017-08-01T12:09:33.860Z,25.98
2017-08-01T12:10:42.812Z,26.01
2017-08-01T12:11:51.775Z,26.01
2017-08-01T12:13:00.742Z,26.02
2017-08-01T12:14:09.717Z,25.98
2017-08-01T12:15:18.682Z,26.09
2017-08-01T12:16:27.646Z,26.13
2017-08-01T12:17:36.622Z,26.17
2017-08-01T12:18:45.598Z,26.18
2017-08-01T12:19:54.559Z,26.2
2017-08-01T12:21:03.537Z,26.21
2017-08-01T12:22:12.500Z,26.13
2017-08-01T12:23:21.783Z,26.21
2017-08-01T12:24:30.741Z,26.21
2017-08-01T12:25:39.702Z,26.2
2017-08-01T12:26:48.671Z,26.21
2017-08-01T12:27:57.637Z,26.15
2017-08-01T12:29:06.605Z,26.26
2017-08-01T12:30:15.571Z,26.21
2017-08-01T12:31:24.534Z,26.21
2017-08-01T12:32:33.506Z,26.26
2017-08-01T12:33:42.481Z,26.35
2017-08-01T12:34:51.447Z,26.32
2017-08-01T12:36:00.421Z,26.33
2017-08-01T12:37:09.390Z,26.32
2017-08-01T12:38:18.352Z,26.32
2017-08-01T12:39:27.307Z,26.32
2017-08-01T12:40:36.265Z,26.32
2017-08-01T12:41:45.550Z,26.33
2017-08-01T12:42:54.525Z,26.36
2017-08-01T12:44:03.486Z,26.44
2017-08-01T12:45:12.455Z,26.5
2017-08-01T12:46:21.424Z,26.44
2017-08-01T12:47:30.383Z,26.48
2017-08-01T12:48:39.347Z,26.45
2017-08-01T12:49:48.307Z,26.45
2017-08-01T12:50:57.274Z,26.52
2017-08-01T12:52:06.570Z,26.57
2017-08-01T12:53:15.538Z,26.57
2017-08-01T12:54:24.494Z,26.57
2017-08-01T12:55:33.458Z,26.57
2017-08-01T12:56:42.423Z,26.55
2017-08-01T12:57:51.396Z,26.57
2017-08-01T12:59:00.361Z,26.54
2017-08-01T13:00:09.338Z,26.6
2017-08-01T13:01:18.308Z,26.44
2017-08-01T13:02:27.273Z,26.58
2017-08-01T13:03:36.235Z,26.52
2017-08-01T13:04:45.203Z,26.54
2017-08-01T13:05:54.168Z,26.44
2017-08-01T13:07:03.134Z,26.5
2017-08-01T13:08:12.098Z,26.48
2017-08-01T13:09:21.067Z,26.45
2017-08-01T13:10:30.026Z,26.45
2017-08-01T13:11:38.986Z,26.47
2017-08-01T13:12:47.954Z,26.45
2017-08-01T13:13:56.921Z,26.57
2017-08-01T13:15:05.888Z,26.62
2017-08-01T13:16:14.860Z,26.62
2017-08-01T13:17:23.824Z,26.65
2017-08-01T13:18:32.784Z,26.77
2017-08-01T13:19:42.071Z,26.81
2017-08-01T13:20:51.041Z,26.81
2017-08-01T13:22:00.008Z,26.82
2017-08-01T13:23:08.970Z,26.85
2017-08-01T13:24:17.932Z,26.82
2017-08-01T13:25:27.216Z,26.84
2017-08-01T13:26:36.178Z,26.75
2017-08-01T13:27:45.131Z,26.73
2017-08-01T13:28:54.097Z,26.76
2017-08-01T13:30:03.064Z,26.63
2017-08-01T13:31:12.027Z,26.65
2017-08-01T13:32:20.992Z,26.7
2017-08-01T13:33:29.943Z,26.65
2017-08-01T13:34:38.912Z,26.72
2017-08-01T13:35:47.880Z,26.67
2017-08-01T13:36:56.843Z,26.72
2017-08-01T13:38:05.811Z,26.73
2017-08-01T13:39:14.770Z,26.75
2017-08-01T13:40:23.731Z,26.75
2017-08-01T13:41:32.695Z,26.73
2017-08-01T13:42:41.655Z,26.7
2017-08-01T13:43:50.625Z,26.75
2017-08-01T13:44:59.595Z,26.76
2017-08-01T13:46:08.554Z,26.72
2017-08-01T13:47:17.524Z,26.76
2017-08-01T13:48:26.487Z,26.73
2017-08-01T13:49:35.461Z,26.75
2017-08-01T13:50:44.425Z,26.77
2017-08-01T13:51:53.408Z,26.82
2017-08-01T13:53:02.706Z,26.88
2017-08-01T13:54:11.681Z,26.87
2017-08-01T13:55:20.649Z,26.91
2017-08-01T13:56:29.611Z,27.03
2017-08-01T13:57:38.575Z,27.06
2017-08-01T13:58:47.542Z,27.02
2017-08-01T13:59:56.506Z,27.19
2017-08-01T14:01:05.823Z,27.21
2017-08-01T14:02:14.790Z,27.17
2017-08-01T14:03:23.758Z,27.18
2017-08-01T14:04:32.722Z,27.14
2017-08-01T14:05:41.689Z,27.17
2017-08-01T14:06:51.004Z,27.14
2017-08-01T14:07:59.959Z,27.18
2017-08-01T14:09:08.930Z,27.27
2017-08-01T14:10:17.983Z,27.25
2017-08-01T14:11:26.990Z,27.28
2017-08-01T14:12:35.993Z,27.21
2017-08-01T14:13:45.284Z,27.25
2017-08-01T14:14:54.265Z,27.24
2017-08-01T14:16:03.244Z,27.27
2017-08-01T14:17:12.228Z,27.13
2017-08-01T14:18:21.220Z,27.17
2017-08-01T14:19:30.209Z,27.24
2017-08-01T14:20:39.189Z,27.12
2017-08-01T14:21:48.180Z,27.17
2017-08-01T14:22:57.169Z,27.25
2017-08-01T14:24:06.170Z,27.24
2017-08-01T14:25:15.166Z,27.14
2017-08-01T14:26:24.163Z,27.24
2017-08-01T14:27:33.154Z,27.31
2017-08-01T14:28:42.146Z,27.29
2017-08-01T14:29:51.141Z,27.22
2017-08-01T14:31:00.129Z,27.36
2017-08-01T14:32:09.447Z,27.28
2017-08-01T14:33:18.434Z,27.31
2017-08-01T14:34:27.451Z,27.41
2017-08-01T14:35:36.438Z,27.37
2017-08-01T14:36:45.423Z,27.32
2017-08-01T14:37:54.437Z,27.34
2017-08-01T14:39:03.424Z,27.36
2017-08-01T14:40:12.411Z,27.29
2017-08-01T14:41:21.407Z,27.41
2017-08-01T14:42:30.400Z,27.29
2017-08-01T14:43:39.407Z,27.29
2017-08-01T14:44:48.434Z,27.32
2017-08-01T14:45:57.693Z,27.32
2017-08-01T14:47:06.681Z,27.31
2017-08-01T14:48:15.677Z,27.31
2017-08-01T14:49:24.683Z,27.4
2017-08-01T14:50:33.667Z,27.34
2017-08-01T14:51:42.643Z,27.39
2017-08-01T14:52:51.633Z,27.4